Time;durP1;ratioP1;P1;durP2;ratioP2;P2;SDS_P1;SDS_P2;PMS_P1;PMS_P2;Temp;Humidity;BMP_temperature;BMP_pressure;BME280_temperature;BME280_humidity;BME280_pressure;Samples;Min_cycle;Max_cycle;Signal;HPM_P1;HPM_P2
2022/01/25 00:27:39;;;;;;;;;;;;;;;;;;5027452;28;20051;-57
2022/01/25 00:30:29;;;;;;;33.92;18.45;;;;;;;;;;5043505;28;19966;-57
2022/01/25 00:32:56;;;;;;;39.08;20.02;;;;;;;;;;5034688;28;20076;-58
2022/01/25 00:35:23;;;;;;;38.60;20.45;;;;;;;;;;5024543;28;20485;-58
2022/01/25 00:37:49;;;;;;;35.05;19.58;;;;;;;;;;5042943;28;20025;-58
2022/01/25 00:40:16;;;;;;;33.65;18.85;;;;;;;;;;5044726;28;20028;-57
2022/01/25 00:42:43;;;;;;;37.25;20.30;;;;;;;;;;5044181;28;20029;-58
2022/01/25 00:45:10;;;;;;;33.88;19.58;;;;;;;;;;5045014;28;20021;-58
2022/01/25 00:47:40;;;;;;;35.80;18.60;;;;;;;;;;5044271;28;20017;-57
2022/01/25 00:50:13;;;;;;;36.67;19.00;;;;;;;;;;5043380;28;20512;-58
2022/01/25 00:55:14;;;;;;;31.67;16.85;;;;;;;;;;5032103;28;20075;-57
2022/01/25 00:57:40;;;;;;;34.58;18.90;;;;;;;;;;5023908;28;20025;-57
2022/01/25 01:00:08;;;;;;;36.47;18.35;;;;;;;;;;5024628;28;20030;-57
2022/01/25 01:02:34;;;;;;;31.92;17.90;;;;;;;;;;5058100;28;20404;-57
2022/01/25 01:05:01;;;;;;;32.13;16.60;;;;;;;;;;5056980;28;20035;-58
2022/01/25 01:07:27;;;;;;;32.72;17.35;;;;;;;;;;5043575;28;20580;-58
2022/01/25 01:09:55;;;;;;;29.80;16.92;;;;;;;;;;5044152;28;20496;-57
2022/01/25 01:31:26;;;;;;;29.15;16.02;;;;;;;;;;5024531;28;20044;-57
2022/01/25 01:47:36;;;;;;;29.60;16.35;;;;;;;;;;5024504;28;20500;-57
2022/01/25 01:50:08;;;;;;;32.75;17.05;;;;;;;;;;5024502;28;20241;-57
2022/01/25 01:52:35;;;;;;;29.67;16.35;;;;;;;;;;5024308;28;20531;-57
2022/01/25 01:55:01;;;;;;;29.75;16.80;;;;;;;;;;5024849;28;20137;-57
2022/01/25 01:57:27;;;;;;;29.80;16.52;;;;;;;;;;5025007;28;20075;-57
2022/01/25 01:59:53;;;;;;;30.73;17.38;;;;;;;;;;5034156;28;20025;-58
2022/01/25 02:02:20;;;;;;;29.67;16.13;;;;;;;;;;5036383;28;20033;-58
2022/01/25 02:04:46;;;;;;;30.02;16.40;;;;;;;;;;5030574;28;20024;-58
2022/01/25 02:07:12;;;;;;;35.72;19.55;;;;;;;;;;5044870;28;20556;-58
2022/01/25 02:09:38;;;;;;;47.88;23.65;;;;;;;;;;5045421;28;20080;-58
2022/01/25 02:12:05;;;;;;;43.67;22.08;;;;;;;;;;5045928;28;20024;-58
2022/01/25 02:14:35;;;;;;;43.13;22.40;;;;;;;;;;5042572;28;20028;-58
2022/01/25 02:17:26;;;;;;;38.38;20.48;;;;;;;;;;5025810;28;20030;-58
2022/01/25 02:22:52;;;;;;;37.08;18.95;;;;;;;;;;5026096;28;20086;-57
2022/01/25 02:25:18;;;;;;;34.38;17.83;;;;;;;;;;5033167;28;20397;-57
2022/01/25 02:27:44;;;;;;;32.63;18.50;;;;;;;;;;5045797;28;20388;-58
2022/01/25 02:30:11;;;;;;;34.17;18.85;;;;;;;;;;5045213;28;20040;-57
2022/01/25 02:32:37;;;;;;;38.42;19.20;;;;;;;;;;5045031;28;20396;-58
2022/01/25 02:35:03;;;;;;;36.38;18.02;;;;;;;;;;5044521;28;20040;-58
2022/01/25 02:37:30;;;;;;;36.00;18.80;;;;;;;;;;5029030;28;20033;-58
2022/01/25 02:39:56;;;;;;;33.67;17.65;;;;;;;;;;5025225;28;20025;-57
2022/01/25 02:42:23;;;;;;;33.83;17.10;;;;;;;;;;5040854;28;20103;-57
2022/01/25 02:44:50;;;;;;;32.50;17.80;;;;;;;;;;5044237;28;20028;-57
2022/01/25 02:50:01;;;;;;;29.63;16.20;;;;;;;;;;5049189;28;20048;-58
2022/01/25 02:52:28;;;;;;;29.67;16.15;;;;;;;;;;5049596;28;20025;-58
2022/01/25 02:54:54;;;;;;;28.60;15.20;;;;;;;;;;5046661;28;20543;-58
2022/01/25 02:57:21;;;;;;;30.95;16.13;;;;;;;;;;5029013;28;20037;-58
2022/01/25 02:59:47;;;;;;;29.23;15.85;;;;;;;;;;5029138;28;20052;-57
2022/01/25 03:02:13;;;;;;;28.00;15.55;;;;;;;;;;5029135;28;20369;-58
2022/01/25 03:04:39;;;;;;;27.92;15.00;;;;;;;;;;5029397;28;20037;-58
2022/01/25 03:07:06;;;;;;;27.42;14.77;;;;;;;;;;5046423;28;20051;-57
2022/01/25 03:09:32;;;;;;;31.30;16.98;;;;;;;;;;5048281;28;20476;-57
2022/01/25 03:12:00;;;;;;;26.70;15.07;;;;;;;;;;5048973;28;20108;-58
2022/01/25 03:14:31;;;;;;;27.52;14.98;;;;;;;;;;5047371;28;20124;-58
2022/01/25 03:21:58;;;;;;;29.40;15.40;;;;;;;;;;5046926;28;20037;-57
2022/01/25 03:24:24;;;;;;;29.70;16.08;;;;;;;;;;5048119;28;20084;-57
2022/01/25 03:26:50;;;;;;;29.75;16.98;;;;;;;;;;5047836;28;20033;-58
2022/01/25 03:29:17;;;;;;;31.35;16.70;;;;;;;;;;5048156;28;20102;-58
2022/01/25 03:31:43;;;;;;;29.42;15.70;;;;;;;;;;5048069;28;20397;-58
2022/01/25 03:34:09;;;;;;;33.42;16.73;;;;;;;;;;5047179;28;20083;-58
2022/01/25 03:36:35;;;;;;;29.60;15.57;;;;;;;;;;5046588;28;20032;-57
2022/01/25 03:39:01;;;;;;;28.40;15.73;;;;;;;;;;5048665;28;20508;-57
2022/01/25 03:41:27;;;;;;;28.30;16.13;;;;;;;;;;5048622;28;20029;-57
2022/01/25 03:43:56;;;;;;;28.92;16.27;;;;;;;;;;5048062;28;20032;-58
2022/01/25 03:46:31;;;;;;;31.42;16.75;;;;;;;;;;5033835;28;20033;-57
2022/01/25 03:51:42;;;;;;;28.92;16.08;;;;;;;;;;5027814;28;20688;-58
2022/01/25 03:54:09;;;;;;;27.85;15.75;;;;;;;;;;5028116;28;20029;-57
2022/01/25 03:56:36;;;;;;;30.10;15.45;;;;;;;;;;5039866;28;20111;-57
2022/01/25 03:59:02;;;;;;;27.42;15.70;;;;;;;;;;5047678;28;20573;-57
2022/01/25 04:01:29;;;;;;;30.20;16.75;;;;;;;;;;5047789;28;20028;-57
2022/01/25 04:04:02;;;;;;;27.33;15.68;;;;;;;;;;5047594;28;20048;-57
2022/01/25 04:06:32;;;;;;;28.58;15.60;;;;;;;;;;5045940;28;20619;-57
2022/01/25 04:08:59;;;;;;;31.38;16.88;;;;;;;;;;5048146;28;20423;-57
2022/01/25 04:11:26;;;;;;;30.30;15.45;;;;;;;;;;5047186;28;20032;-57
2022/01/25 04:13:53;;;;;;;30.98;17.08;;;;;;;;;;5047518;28;20728;-57
2022/01/25 04:16:25;;;;;;;29.42;15.68;;;;;;;;;;5045261;28;20029;-57
2022/01/25 04:19:04;;;;;;;31.45;17.17;;;;;;;;;;5046639;28;20025;-57
2022/01/25 04:26:45;;;;;;;28.77;15.63;;;;;;;;;;5046500;28;20094;-56
2022/01/25 04:29:11;;;;;;;28.30;15.45;;;;;;;;;;5045436;28;20485;-56
2022/01/25 04:31:38;;;;;;;25.80;14.52;;;;;;;;;;5045953;28;20036;-56
2022/01/25 04:34:12;;;;;;;28.10;14.63;;;;;;;;;;5027852;28;20021;-56
2022/01/25 04:48:54;;;;;;;28.23;14.95;;;;;;;;;;5026582;28;20693;-56
2022/01/25 04:50:55;;;;;;;31.50;16.23;;;;;;;;;;5046684;28;20099;-56
2022/01/25 04:53:34;;;;;;;31.27;17.20;;;;;;;;;;5045161;28;20029;-56
2022/01/25 04:56:29;;;;;;;32.67;17.13;;;;;;;;;;5046471;28;20040;-56
2022/01/25 04:58:59;;;;;;;33.90;16.83;;;;;;;;;;5046143;28;20731;-56
2022/01/25 05:01:25;;;;;;;33.22;17.67;;;;;;;;;;5046241;28;20408;-56
2022/01/25 05:04:09;;;;;;;32.28;16.85;;;;;;;;;;5045243;28;20044;-56
2022/01/25 05:06:35;;;;;;;31.50;16.73;;;;;;;;;;5046233;28;20051;-56
2022/01/25 05:09:10;;;;;;;31.92;16.50;;;;;;;;;;5030257;28;20048;-56
2022/01/25 05:11:40;;;;;;;36.95;18.95;;;;;;;;;;5046240;28;20029;-56
2022/01/25 05:16:36;;;;;;;33.92;18.10;;;;;;;;;;5045982;28;20033;-55
2022/01/25 05:24:28;;;;;;;33.35;17.88;;;;;;;;;;5046428;28;20060;-55
2022/01/25 05:26:54;;;;;;;31.95;17.60;;;;;;;;;;5045968;28;20032;-56
2022/01/25 05:29:20;;;;;;;33.28;17.65;;;;;;;;;;5044363;28;20094;-55
2022/01/25 05:31:46;;;;;;;34.13;18.70;;;;;;;;;;5025308;28;20025;-55
2022/01/25 05:34:13;;;;;;;31.75;18.00;;;;;;;;;;5046365;28;20584;-54
2022/01/25 05:36:39;;;;;;;33.38;17.00;;;;;;;;;;5046017;28;20017;-55
2022/01/25 05:39:17;;;;;;;34.03;17.98;;;;;;;;;;5046056;28;20029;-55
2022/01/25 05:41:46;;;;;;;32.72;17.20;;;;;;;;;;5046334;28;20040;-55
2022/01/25 05:44:22;;;;;;;34.30;18.27;;;;;;;;;;5044032;28;20116;-55
2022/01/25 05:47:04;;;;;;;34.70;18.33;;;;;;;;;;5045921;28;20021;-55
2022/01/25 05:49:30;;;;;;;32.63;18.20;;;;;;;;;;5046299;28;20504;-55
2022/01/25 05:51:56;;;;;;;31.73;18.02;;;;;;;;;;5045216;28;20100;-55
2022/01/25 05:54:22;;;;;;;34.60;18.48;;;;;;;;;;5030137;28;20482;-55
2022/01/25 05:56:48;;;;;;;38.95;18.55;;;;;;;;;;5045829;28;20485;-55
2022/01/25 05:59:15;;;;;;;39.15;19.95;;;;;;;;;;5045787;28;20104;-55
2022/01/25 06:01:41;;;;;;;37.45;19.10;;;;;;;;;;5045571;28;20047;-55
2022/01/25 06:04:07;;;;;;;32.50;18.25;;;;;;;;;;5044825;28;20021;-55
2022/01/25 06:06:34;;;;;;;32.45;17.77;;;;;;;;;;5045108;28;20044;-55
2022/01/25 06:09:00;;;;;;;34.08;18.17;;;;;;;;;;5045896;28;20041;-55
2022/01/25 06:11:26;;;;;;;36.13;18.08;;;;;;;;;;5045664;28;20021;-54
2022/01/25 06:13:52;;;;;;;31.83;16.90;;;;;;;;;;5044402;28;20819;-53
2022/01/25 06:16:18;;;;;;;32.67;17.48;;;;;;;;;;5045504;28;20559;-55
2022/01/25 06:18:45;;;;;;;34.05;17.60;;;;;;;;;;5045712;28;20025;-54
2022/01/25 06:21:11;;;;;;;35.30;17.50;;;;;;;;;;5049095;28;20032;-55
2022/01/25 06:23:37;;;;;;;35.53;18.63;;;;;;;;;;5046973;28;20037;-56
2022/01/25 06:26:03;;;;;;;38.97;18.98;;;;;;;;;;5049569;28;20032;-55
2022/01/25 06:28:29;;;;;;;34.55;18.00;;;;;;;;;;5048300;28;20389;-54
2022/01/25 06:30:55;;;;;;;34.20;18.67;;;;;;;;;;5049152;28;20059;-55
2022/01/25 06:33:21;;;;;;;35.75;18.02;;;;;;;;;;5048024;28;20036;-54
2022/01/25 06:35:49;;;;;;;34.50;17.63;;;;;;;;;;5049140;28;20036;-54
2022/01/25 06:38:15;;;;;;;35.08;19.02;;;;;;;;;;5040756;28;20021;-54
2022/01/25 06:40:41;;;;;;;33.70;17.85;;;;;;;;;;5048040;28;20105;-55
2022/01/25 06:43:07;;;;;;;32.88;18.30;;;;;;;;;;5049092;28;20122;-55
2022/01/25 06:45:39;;;;;;;33.85;17.83;;;;;;;;;;5045756;28;20025;-56
2022/01/25 06:48:05;;;;;;;36.97;18.98;;;;;;;;;;5037729;28;20053;-55
2022/01/25 06:50:31;;;;;;;31.48;18.05;;;;;;;;;;5031318;28;20033;-54
2022/01/25 06:52:57;;;;;;;36.80;18.65;;;;;;;;;;5034768;28;20121;-55
2022/01/25 06:55:23;;;;;;;32.97;17.92;;;;;;;;;;5029194;28;20687;-55
2022/01/25 06:57:49;;;;;;;30.73;16.70;;;;;;;;;;5031683;28;20113;-56
2022/01/25 07:00:19;;;;;;;31.42;17.15;;;;;;;;;;5038681;28;20044;-55
2022/01/25 07:02:46;;;;;;;30.15;16.95;;;;;;;;;;5052706;28;20021;-55
2022/01/25 07:05:12;;;;;;;33.58;18.13;;;;;;;;;;5048744;28;20488;-56
2022/01/25 07:07:39;;;;;;;39.33;19.67;;;;;;;;;;5044990;28;20060;-55
2022/01/25 07:10:06;;;;;;;38.17;20.58;;;;;;;;;;5034670;28;20163;-56
2022/01/25 07:12:32;;;;;;;37.90;20.83;;;;;;;;;;5046476;28;20502;-55
2022/01/25 07:14:58;;;;;;;41.45;21.48;;;;;;;;;;5049257;28;20461;-56
2022/01/25 07:17:24;;;;;;;39.38;20.80;;;;;;;;;;5030500;28;20171;-54
2022/01/25 07:19:51;;;;;;;44.20;22.40;;;;;;;;;;5028335;28;20034;-54
2022/01/25 07:22:17;;;;;;;48.55;24.50;;;;;;;;;;5044358;28;20033;-56
2022/01/25 07:24:43;;;;;;;55.58;27.27;;;;;;;;;;5048623;28;20040;-56
2022/01/25 07:27:09;;;;;;;65.13;32.22;;;;;;;;;;5048226;28;20022;-56
2022/01/25 07:29:35;;;;;;;76.00;36.65;;;;;;;;;;5046139;28;20104;-56
2022/01/25 07:32:02;;;;;;;71.47;35.22;;;;;;;;;;5046414;28;20432;-56
2022/01/25 07:34:28;;;;;;;63.42;31.50;;;;;;;;;;5040681;28;20037;-56
2022/01/25 07:36:54;;;;;;;56.75;29.00;;;;;;;;;;5028110;28;20036;-56
2022/01/25 07:39:22;;;;;;;51.78;26.20;;;;;;;;;;5027127;28;20065;-56
2022/01/25 07:41:48;;;;;;;45.10;23.05;;;;;;;;;;5027213;28;20026;-56
2022/01/25 07:44:15;;;;;;;41.42;22.67;;;;;;;;;;5044838;28;20109;-56
2022/01/25 07:46:41;;;;;;;42.20;20.33;;;;;;;;;;5046254;28;20074;-56
2022/01/25 07:49:07;;;;;;;35.95;19.10;;;;;;;;;;5044679;28;20115;-55
2022/01/25 07:51:35;;;;;;;35.92;20.10;;;;;;;;;;5039537;28;20487;-56
2022/01/25 07:54:02;;;;;;;34.15;18.40;;;;;;;;;;5042157;28;20021;-56
2022/01/25 07:56:28;;;;;;;32.17;17.92;;;;;;;;;;5046637;28;20021;-56
2022/01/25 07:58:54;;;;;;;33.28;17.58;;;;;;;;;;5047046;28;20035;-57
2022/01/25 08:01:20;;;;;;;31.33;17.25;;;;;;;;;;5035770;28;20057;-56
2022/01/25 08:03:46;;;;;;;29.17;16.55;;;;;;;;;;5026762;28;20036;-56
2022/01/25 08:06:14;;;;;;;29.80;16.80;;;;;;;;;;5027594;28;20053;-55
2022/01/25 08:08:41;;;;;;;28.30;16.23;;;;;;;;;;5029327;28;20504;-54
2022/01/25 08:11:07;;;;;;;29.70;15.93;;;;;;;;;;5037621;28;20029;-54
2022/01/25 08:13:36;;;;;;;30.45;16.95;;;;;;;;;;5026695;28;20036;-54
2022/01/25 08:16:02;;;;;;;31.15;17.75;;;;;;;;;;5027656;28;20388;-54
2022/01/25 08:18:28;;;;;;;32.53;17.73;;;;;;;;;;5034718;28;20108;-54
2022/01/25 08:20:54;;;;;;;30.85;17.63;;;;;;;;;;5031206;28;20397;-54
2022/01/25 08:23:20;;;;;;;31.90;18.13;;;;;;;;;;5033598;28;20032;-54
2022/01/25 08:25:48;;;;;;;28.83;16.75;;;;;;;;;;5047702;28;20071;-55
2022/01/25 08:28:14;;;;;;;29.42;15.82;;;;;;;;;;5032066;28;20038;-54
2022/01/25 08:30:40;;;;;;;29.15;16.48;;;;;;;;;;5026711;28;20032;-54
2022/01/25 08:33:06;;;;;;;25.73;15.10;;;;;;;;;;5027150;28;20604;-54
2022/01/25 08:35:32;;;;;;;24.02;14.20;;;;;;;;;;5026301;28;20022;-54
2022/01/25 08:37:58;;;;;;;28.45;15.50;;;;;;;;;;5026893;28;20045;-55
2022/01/25 08:40:24;;;;;;;25.23;14.65;;;;;;;;;;5026269;28;20038;-54
2022/01/25 08:42:50;;;;;;;25.70;15.32;;;;;;;;;;5044141;28;20035;-53
2022/01/25 08:45:17;;;;;;;27.77;15.85;;;;;;;;;;5044097;28;20528;-54
2022/01/25 08:47:43;;;;;;;26.77;14.60;;;;;;;;;;5027591;28;20132;-54
2022/01/25 08:50:10;;;;;;;24.80;14.38;;;;;;;;;;5026574;28;20029;-54
2022/01/25 08:52:37;;;;;;;23.33;13.15;;;;;;;;;;5026410;28;20101;-54
2022/01/25 08:55:04;;;;;;;23.33;14.23;;;;;;;;;;5038672;28;20393;-55
2022/01/25 08:57:30;;;;;;;25.45;14.48;;;;;;;;;;5045931;28;20439;-55
2022/01/25 08:59:56;;;;;;;25.75;14.18;;;;;;;;;;5044633;28;20021;-55
2022/01/25 09:02:23;;;;;;;27.73;15.20;;;;;;;;;;5027313;28;20036;-56
2022/01/25 09:04:49;;;;;;;27.25;15.52;;;;;;;;;;5028866;28;20029;-56
2022/01/25 09:07:15;;;;;;;26.88;16.02;;;;;;;;;;5026903;28;20032;-56
2022/01/25 09:09:42;;;;;;;24.92;14.88;;;;;;;;;;5026313;28;20029;-56
2022/01/25 09:12:10;;;;;;;29.30;16.20;;;;;;;;;;5027100;28;20057;-55
2022/01/25 09:14:36;;;;;;;26.88;15.38;;;;;;;;;;5039686;28;20027;-56
2022/01/25 09:17:02;;;;;;;26.30;15.52;;;;;;;;;;5045540;28;20484;-56
2022/01/25 09:19:28;;;;;;;23.33;14.70;;;;;;;;;;5041591;28;20041;-56
2022/01/25 09:21:54;;;;;;;25.95;14.98;;;;;;;;;;5041276;28;20034;-55
2022/01/25 09:24:21;;;;;;;25.90;15.95;;;;;;;;;;5025601;28;20029;-56
2022/01/25 09:26:47;;;;;;;27.73;15.18;;;;;;;;;;5027665;28;20044;-56
2022/01/25 09:29:14;;;;;;;26.83;15.38;;;;;;;;;;5026553;28;20112;-56
2022/01/25 09:31:40;;;;;;;26.70;15.00;;;;;;;;;;5025638;28;20420;-55
2022/01/25 09:34:05;;;;;;;24.75;14.35;;;;;;;;;;5026077;28;20021;-55
2022/01/25 09:36:33;;;;;;;25.80;14.68;;;;;;;;;;5025810;28;20031;-56
2022/01/25 09:39:00;;;;;;;25.58;15.32;;;;;;;;;;5025886;28;20428;-56
2022/01/25 09:41:29;;;;;;;24.40;13.82;;;;;;;;;;5028218;28;20056;-56
2022/01/25 09:43:55;;;;;;;25.00;14.18;;;;;;;;;;5035236;28;20087;-55
2022/01/25 09:46:21;;;;;;;26.45;15.48;;;;;;;;;;5049673;28;20033;-56
2022/01/25 09:48:48;;;;;;;25.42;15.27;;;;;;;;;;5046921;28;20082;-56
2022/01/25 09:51:14;;;;;;;27.52;14.35;;;;;;;;;;5046174;28;20497;-57
2022/01/25 09:53:40;;;;;;;24.40;15.00;;;;;;;;;;5044970;28;20385;-57
2022/01/25 09:56:08;;;;;;;22.83;14.00;;;;;;;;;;5049203;28;20086;-57
2022/01/25 09:58:34;;;;;;;25.95;14.57;;;;;;;;;;5048495;28;20044;-57
2022/01/25 10:01:01;;;;;;;24.70;15.05;;;;;;;;;;5049566;28;20037;-58
2022/01/25 10:03:34;;;;;;;26.40;14.48;;;;;;;;;;5039961;28;20034;-58
2022/01/25 10:06:02;;;;;;;22.63;14.85;;;;;;;;;;5038418;28;20041;-58
2022/01/25 10:08:32;;;;;;;26.52;15.07;;;;;;;;;;5029089;28;20519;-58
2022/01/25 10:11:01;;;;;;;28.08;14.68;;;;;;;;;;5029246;28;20060;-58
2022/01/25 10:13:35;;;;;;;25.73;15.48;;;;;;;;;;5036659;28;20029;-58
2022/01/25 10:16:01;;;;;;;;;;;;;;;;;;5048267;28;20026;-58
2022/01/25 10:18:44;;;;;;;27.02;14.63;;;;;;;;;;5038865;28;19905;-58
2022/01/25 10:21:11;;;;;;;26.30;15.35;;;;;;;;;;5032124;28;20029;-58
2022/01/25 10:23:37;;;;;;;25.58;15.23;;;;;;;;;;5028880;28;20029;-58
2022/01/25 10:26:04;;;;;;;26.55;15.75;;;;;;;;;;5030379;28;20034;-58
2022/01/25 10:28:31;;;;;;;25.92;15.02;;;;;;;;;;5037291;28;20168;-58
2022/01/25 10:30:59;;;;;;;25.85;14.65;;;;;;;;;;5035498;28;20028;-58
2022/01/25 10:33:43;;;;;;;22.92;13.93;;;;;;;;;;5033498;28;20041;-58
2022/01/25 10:36:17;;;;;;;28.00;15.13;;;;;;;;;;5044825;28;20558;-58
2022/01/25 10:38:45;;;;;;;24.30;14.75;;;;;;;;;;5032408;28;20022;-59
2022/01/25 10:41:12;;;;;;;27.33;15.00;;;;;;;;;;5029293;28;20025;-58
2022/01/25 10:43:39;;;;;;;30.88;16.00;;;;;;;;;;5028579;28;20033;-58
2022/01/25 10:46:32;;;;;;;25.80;14.68;;;;;;;;;;5033495;28;20034;-58
2022/01/25 10:49:03;;;;;;;27.00;15.65;;;;;;;;;;5029165;28;20071;-58
2022/01/25 10:51:30;;;;;;;26.45;15.77;;;;;;;;;;5029034;28;20025;-58
2022/01/25 10:53:57;;;;;;;28.05;15.82;;;;;;;;;;5028699;28;20104;-58
2022/01/25 10:56:24;;;;;;;29.10;16.75;;;;;;;;;;5028292;28;20037;-58
2022/01/25 10:58:50;;;;;;;30.55;16.90;;;;;;;;;;5028702;28;20053;-58
2022/01/25 11:01:29;;;;;;;29.70;16.52;;;;;;;;;;5028648;28;20021;-58
2022/01/25 11:04:03;;;;;;;33.95;19.25;;;;;;;;;;5030591;28;20041;-58
2022/01/25 11:06:29;;;;;;;32.72;18.58;;;;;;;;;;5034701;28;20029;-59
2022/01/25 11:08:59;;;;;;;29.63;18.25;;;;;;;;;;5026606;28;20072;-58
2022/01/25 11:11:29;;;;;;;29.08;17.48;;;;;;;;;;5043924;28;20036;-58
2022/01/25 11:14:49;;;;;;;31.67;19.00;;;;;;;;;;5048349;28;20024;-58
2022/01/25 11:16:43;;;;;;;32.97;19.50;;;;;;;;;;5048296;28;20048;-58
2022/01/25 11:19:09;;;;;;;29.48;18.35;;;;;;;;;;5048200;28;20078;-58
2022/01/25 11:21:36;;;;;;;28.65;17.38;;;;;;;;;;5047803;28;20462;-58
2022/01/25 11:24:03;;;;;;;28.00;17.10;;;;;;;;;;5047764;28;20033;-58
2022/01/25 11:26:29;;;;;;;27.20;16.40;;;;;;;;;;5045856;28;20488;-58
2022/01/25 11:28:55;;;;;;;29.13;17.83;;;;;;;;;;5028276;28;20576;-58
2022/01/25 11:31:22;;;;;;;29.98;17.55;;;;;;;;;;5042961;28;20040;-58
2022/01/25 11:33:50;;;;;;;27.80;17.20;;;;;;;;;;5048233;28;20028;-59
2022/01/25 11:36:17;;;;;;;24.90;16.40;;;;;;;;;;5047974;28;20029;-59
2022/01/25 11:38:47;;;;;;;25.38;15.77;;;;;;;;;;5033551;28;20030;-59
2022/01/25 11:41:14;;;;;;;24.40;14.77;;;;;;;;;;5027934;28;20029;-59
2022/01/25 11:44:00;;;;;;;22.67;14.20;;;;;;;;;;5027799;28;20546;-58
2022/01/25 11:46:26;;;;;;;23.05;14.18;;;;;;;;;;5040185;28;20033;-58
2022/01/25 11:48:52;;;;;;;21.20;13.55;;;;;;;;;;5047835;28;20029;-58
2022/01/25 11:51:19;;;;;;;22.00;13.82;;;;;;;;;;5039510;28;20042;-58
2022/01/25 11:53:47;;;;;;;22.23;13.10;;;;;;;;;;5027547;28;20112;-58
2022/01/25 11:56:14;;;;;;;21.40;12.88;;;;;;;;;;5027374;28;20104;-59
2022/01/25 11:58:41;;;;;;;20.05;12.57;;;;;;;;;;5027796;28;20026;-58
2022/01/25 12:01:16;;;;;;;19.20;12.10;;;;;;;;;;5027443;28;20064;-59
2022/01/25 12:03:46;;;;;;;19.48;11.95;;;;;;;;;;5027313;28;20025;-59
2022/01/25 12:06:24;;;;;;;18.42;11.38;;;;;;;;;;5029142;28;20082;-59
2022/01/25 12:11:36;;;;;;;19.20;11.93;;;;;;;;;;5041149;28;20033;-59
2022/01/25 12:14:13;;;;;;;23.52;13.40;;;;;;;;;;5045792;28;20031;-59
2022/01/25 12:16:43;;;;;;;25.55;16.02;;;;;;;;;;5032349;28;20104;-59
2022/01/25 12:19:11;;;;;;;21.70;13.43;;;;;;;;;;5028265;28;20018;-58
2022/01/25 12:21:55;;;;;;;19.67;12.85;;;;;;;;;;5031161;28;20528;-59
2022/01/25 12:24:30;;;;;;;;;;;;;;;;;;5028403;28;20033;-59
2022/01/25 12:29:45;;;;;;;19.63;12.27;;;;;;;;;;5028537;28;20044;-58
2022/01/25 12:32:23;;;;;;;21.02;12.65;;;;;;;;;;5029446;28;20025;-58
2022/01/25 12:35:00;;;;;;;20.08;12.55;;;;;;;;;;5035684;28;20025;-59
2022/01/25 12:37:44;;;;;;;19.20;11.98;;;;;;;;;;5030831;28;20159;-59
2022/01/25 12:40:28;;;;;;;19.60;12.15;;;;;;;;;;5047886;28;20020;-59
2022/01/25 12:43:01;;;;;;;23.50;14.27;;;;;;;;;;5031422;28;20463;-59
2022/01/25 12:45:28;;;;;;;22.08;13.45;;;;;;;;;;5036087;28;20412;-59
2022/01/25 12:48:02;;;;;;;20.77;13.20;;;;;;;;;;5028331;28;20021;-57
2022/01/25 12:50:29;;;;;;;22.42;13.40;;;;;;;;;;5038758;28;20041;-57
2022/01/25 12:52:55;;;;;;;20.50;13.02;;;;;;;;;;5038433;28;20021;-57
2022/01/25 12:55:26;;;;;;;20.90;13.45;;;;;;;;;;5047312;28;20033;-57
2022/01/25 12:57:53;;;;;;;20.30;12.93;;;;;;;;;;5045013;28;20025;-57
2022/01/25 13:00:19;;;;;;;20.73;13.65;;;;;;;;;;5044009;28;20446;-57
2022/01/25 13:02:45;;;;;;;21.27;13.65;;;;;;;;;;5035735;28;20040;-57
2022/01/25 13:05:19;;;;;;;21.92;13.63;;;;;;;;;;5040531;28;20025;-57
2022/01/25 13:07:46;;;;;;;20.52;12.85;;;;;;;;;;5035236;28;20044;-57
2022/01/25 13:10:22;;;;;;;19.75;12.70;;;;;;;;;;5036955;28;20542;-57
2022/01/25 13:13:10;;;;;;;23.85;15.23;;;;;;;;;;5032085;28;20091;-57
2022/01/25 13:15:52;;;;;;;24.63;14.35;;;;;;;;;;5032459;28;20057;-57
2022/01/25 13:18:18;;;;;;;22.42;14.27;;;;;;;;;;5045144;28;20100;-57
2022/01/25 13:20:47;;;;;;;23.70;14.70;;;;;;;;;;5033060;28;20068;-56
2022/01/25 13:23:13;;;;;;;25.33;15.38;;;;;;;;;;5038061;28;20022;-56
2022/01/25 13:28:21;;;;;;;23.00;13.73;;;;;;;;;;5040023;28;20039;-57
2022/01/25 13:30:49;;;;;;;24.38;15.07;;;;;;;;;;5048293;28;20060;-57
2022/01/25 13:33:19;;;;;;;24.30;14.77;;;;;;;;;;5034148;28;20104;-57
2022/01/25 13:35:52;;;;;;;22.67;14.18;;;;;;;;;;5033393;28;20037;-58
2022/01/25 13:38:18;;;;;;;19.58;13.15;;;;;;;;;;5035487;28;20037;-58
2022/01/25 13:45:51;;;;;;;19.75;13.23;;;;;;;;;;5037459;28;20041;-57
2022/01/25 13:48:20;;;;;;;24.17;15.40;;;;;;;;;;5037968;28;20507;-57
2022/01/25 13:50:47;;;;;;;24.17;14.90;;;;;;;;;;5030877;28;20037;-57
2022/01/25 13:53:14;;;;;;;20.17;13.43;;;;;;;;;;5037020;28;20021;-57
2022/01/25 13:55:47;;;;;;;19.02;13.55;;;;;;;;;;5044603;28;20512;-57
2022/01/25 13:58:26;;;;;;;22.52;14.65;;;;;;;;;;5032620;28;20104;-57
2022/01/25 14:00:53;;;;;;;22.92;13.70;;;;;;;;;;5033560;28;20472;-57
2022/01/25 14:03:23;;;;;;;21.08;13.63;;;;;;;;;;5033422;28;20037;-57
2022/01/25 14:05:49;;;;;;;21.48;14.35;;;;;;;;;;5042103;28;20499;-57
2022/01/25 14:08:15;;;;;;;20.25;13.77;;;;;;;;;;5033160;28;20033;-57
2022/01/25 14:10:46;;;;;;;22.90;15.38;;;;;;;;;;5035930;28;20065;-56
2022/01/25 14:21:53;;;;;;;21.92;14.35;;;;;;;;;;5043607;28;20546;-57
2022/01/25 14:24:28;;;;;;;22.75;15.15;;;;;;;;;;5032666;28;20083;-57
2022/01/25 14:26:54;;;;;;;22.88;14.43;;;;;;;;;;5034962;28;20040;-56
2022/01/25 14:29:23;;;;;;;21.88;14.38;;;;;;;;;;5045154;28;20068;-56
2022/01/25 14:31:49;;;;;;;23.70;15.35;;;;;;;;;;5044897;28;20028;-57
2022/01/25 14:34:17;;;;;;;21.83;14.20;;;;;;;;;;5039326;28;20071;-58
2022/01/25 14:36:47;;;;;;;24.20;15.07;;;;;;;;;;5030475;28;20055;-57
2022/01/25 14:39:13;;;;;;;21.00;14.15;;;;;;;;;;5027931;28;20419;-57
2022/01/25 14:41:39;;;;;;;25.10;15.32;;;;;;;;;;5041367;28;20037;-57
2022/01/25 14:44:07;;;;;;;24.05;15.98;;;;;;;;;;5028903;28;20459;-57
2022/01/25 14:46:48;;;;;;;21.80;15.20;;;;;;;;;;5041994;28;20040;-57
2022/01/25 14:49:21;;;;;;;24.70;15.32;;;;;;;;;;5049304;28;20460;-58
2022/01/25 14:51:59;;;;;;;27.40;18.33;;;;;;;;;;5039517;28;20044;-58
2022/01/25 14:54:36;;;;;;;25.38;15.90;;;;;;;;;;5028661;28;20159;-59
2022/01/25 14:57:06;;;;;;;24.85;16.48;;;;;;;;;;5028767;28;20116;-58
2022/01/25 14:59:34;;;;;;;25.25;16.15;;;;;;;;;;5031951;28;20119;-58
2022/01/25 15:02:06;;;;;;;23.48;16.25;;;;;;;;;;5037586;28;20112;-59
2022/01/25 15:04:37;;;;;;;24.05;16.48;;;;;;;;;;5034792;28;20570;-58
2022/01/25 15:07:12;;;;;;;26.42;16.80;;;;;;;;;;5028123;28;20036;-58
2022/01/25 15:09:47;;;;;;;22.77;15.88;;;;;;;;;;5042788;28;20040;-59
2022/01/25 15:12:14;;;;;;;26.08;16.90;;;;;;;;;;5037950;28;20026;-59
2022/01/25 15:14:51;;;;;;;25.52;16.35;;;;;;;;;;5028224;28;20025;-58
2022/01/25 15:17:17;;;;;;;24.90;16.55;;;;;;;;;;5030593;28;20025;-59
2022/01/25 15:19:43;;;;;;;26.48;16.17;;;;;;;;;;5030846;28;20036;-58
2022/01/25 15:22:09;;;;;;;25.52;16.88;;;;;;;;;;5027778;28;20033;-59
2022/01/25 15:24:40;;;;;;;25.63;17.50;;;;;;;;;;5027960;28;20450;-58
2022/01/25 15:27:07;;;;;;;24.13;16.35;;;;;;;;;;5028102;28;20030;-59
2022/01/25 15:29:36;;;;;;;25.65;17.73;;;;;;;;;;5028010;28;20071;-59
2022/01/25 15:32:02;;;;;;;26.05;17.02;;;;;;;;;;5028010;28;20730;-58
2022/01/25 15:34:32;;;;;;;24.75;16.42;;;;;;;;;;5031233;28;20557;-58
2022/01/25 15:36:59;;;;;;;24.48;16.58;;;;;;;;;;5028010;28;20485;-59
2022/01/25 15:39:26;;;;;;;24.83;17.08;;;;;;;;;;5041445;28;20027;-59
2022/01/25 15:41:56;;;;;;;23.88;16.42;;;;;;;;;;5038932;28;20031;-58
2022/01/25 15:44:31;;;;;;;25.77;16.83;;;;;;;;;;5027256;28;20076;-58
2022/01/25 15:46:59;;;;;;;26.58;18.35;;;;;;;;;;5044787;28;20029;-59
2022/01/25 15:49:27;;;;;;;26.05;17.33;;;;;;;;;;5042756;28;20083;-59
2022/01/25 15:51:54;;;;;;;26.45;18.75;;;;;;;;;;5029304;28;20032;-58
2022/01/25 15:54:20;;;;;;;26.30;18.67;;;;;;;;;;5033958;28;20476;-58
2022/01/25 15:56:46;;;;;;;26.25;18.10;;;;;;;;;;5049784;28;20039;-58
2022/01/25 15:59:12;;;;;;;28.35;18.65;;;;;;;;;;5058179;28;20035;-58
2022/01/25 16:01:38;;;;;;;29.17;20.02;;;;;;;;;;5028782;28;20115;-58
2022/01/25 16:04:05;;;;;;;28.25;18.90;;;;;;;;;;5044412;28;20107;-58
2022/01/25 16:06:31;;;;;;;29.38;20.45;;;;;;;;;;5046145;28;20039;-58
2022/01/25 16:08:57;;;;;;;27.50;18.90;;;;;;;;;;5041115;28;20592;-58
2022/01/25 16:11:25;;;;;;;27.55;19.15;;;;;;;;;;5029798;28;20585;-58
2022/01/25 16:13:51;;;;;;;27.70;17.83;;;;;;;;;;5028578;28;20017;-58
2022/01/25 16:16:19;;;;;;;26.13;17.95;;;;;;;;;;5028597;28;20030;-58
2022/01/25 16:18:47;;;;;;;26.52;18.65;;;;;;;;;;5031770;28;20028;-58
2022/01/25 16:21:13;;;;;;;28.52;19.50;;;;;;;;;;5047739;28;20864;-58
2022/01/25 16:23:40;;;;;;;27.88;18.65;;;;;;;;;;5047780;28;20113;-58
2022/01/25 16:26:13;;;;;;;31.15;18.88;;;;;;;;;;5048206;28;20104;-58
2022/01/25 16:28:39;;;;;;;27.58;18.80;;;;;;;;;;5047718;28;20032;-56